createdAt,value
2023-02-11T00:01:23.437Z,32.03
2023-02-11T00:03:53.755Z,31.07
2023-02-11T00:06:24.141Z,31.40
2023-02-11T00:08:54.200Z,30.10
2023-02-11T00:11:26.589Z,31.10
2023-02-11T00:13:56.533Z,33.30
2023-02-11T00:16:29.933Z,30.13
2023-02-11T00:19:01.437Z,33.10
2023-02-11T00:21:32.033Z,33.93
2023-02-11T00:24:02.910Z,32.07
2023-02-11T00:26:35.637Z,33.83
2023-02-11T00:29:06.736Z,32.67
2023-02-11T00:31:39.521Z,31.70
2023-02-11T00:34:09.637Z,33.87
2023-02-11T00:36:39.548Z,33.30
2023-02-11T00:39:11.201Z,32.93
2023-02-11T00:41:41.212Z,32.13
2023-02-11T00:44:11.192Z,33.43
2023-02-11T00:46:43.968Z,32.30
2023-02-11T00:49:14.456Z,31.07
2023-02-11T00:51:44.940Z,30.37
2023-02-11T00:54:15.873Z,32.03
2023-02-11T00:56:46.536Z,32.93
2023-02-11T00:59:16.548Z,28.97
2023-02-11T01:01:49.920Z,33.17
2023-02-11T01:04:19.918Z,29.27
2023-02-11T01:06:49.961Z,26.23
2023-02-11T01:09:21.210Z,31.90
2023-02-11T01:11:51.340Z,27.13
2023-02-11T01:14:21.236Z,30.97
2023-02-11T01:16:56.243Z,30.03
2023-02-11T01:19:26.271Z,31.03
2023-02-11T01:21:56.320Z,30.67
2023-02-11T01:24:26.311Z,32.23
2023-02-11T01:26:56.293Z,31.50
2023-02-11T01:29:27.728Z,30.20
2023-02-11T01:32:00.874Z,26.93
2023-02-11T01:34:30.984Z,31.93
2023-02-11T01:37:01.680Z,30.37
2023-02-11T01:39:35.476Z,29.97
2023-02-11T01:42:05.782Z,32.07
2023-02-11T01:44:38.247Z,33.53
2023-02-11T01:47:11.264Z,31.37
2023-02-11T01:49:44.681Z,32.67
2023-02-11T01:52:20.461Z,31.43
2023-02-11T01:55:09.191Z,32.03
2023-02-11T01:57:42.581Z,30.83
2023-02-11T02:00:17.099Z,34.30
2023-02-11T02:02:57.776Z,31.33
2023-02-11T02:05:35.433Z,29.80
2023-02-11T02:08:12.614Z,31.50
2023-02-11T02:10:46.062Z,31.50
2023-02-11T02:13:16.314Z,31.17
2023-02-11T02:15:53.035Z,31.43
2023-02-11T02:18:38.839Z,31.70
2023-02-11T02:21:50.456Z,29.43
2023-02-11T02:24:47.335Z,30.83
2023-02-11T02:27:36.073Z,29.63
2023-02-11T02:30:38.754Z,28.73
2023-02-11T02:33:37.863Z,30.93
2023-02-11T02:36:25.985Z,29.97
2023-02-11T02:39:00.733Z,30.37
2023-02-11T02:41:33.690Z,33.07
2023-02-11T02:44:04.771Z,31.80
2023-02-11T02:46:36.653Z,31.30
2023-02-11T02:49:13.750Z,32.57
2023-02-11T02:52:07.057Z,32.83
2023-02-11T02:55:06.917Z,32.13
2023-02-11T02:57:47.858Z,31.73
2023-02-11T03:00:26.642Z,33.47
2023-02-11T03:03:11.587Z,34.50
2023-02-11T03:05:52.890Z,33.03
2023-02-11T03:08:30.381Z,31.47
2023-02-11T03:11:03.475Z,34.47
2023-02-11T03:13:36.840Z,32.83
2023-02-11T03:16:12.305Z,33.13
2023-02-11T03:18:47.149Z,34.20
2023-02-11T03:21:22.902Z,33.00
2023-02-11T03:23:56.502Z,36.17
2023-02-11T03:26:33.482Z,35.07
2023-02-11T03:29:07.485Z,35.17
2023-02-11T03:31:43.006Z,32.80
2023-02-11T03:34:16.133Z,33.43
2023-02-11T03:36:53.984Z,36.03
2023-02-11T03:39:27.639Z,36.27
2023-02-11T03:42:01.170Z,33.63
2023-02-11T03:44:36.114Z,34.17
2023-02-11T03:47:08.620Z,34.47
2023-02-11T03:49:41.338Z,35.27
2023-02-11T03:52:16.403Z,34.40
2023-02-11T03:54:49.258Z,31.67
2023-02-11T03:57:19.514Z,35.23
2023-02-11T04:00:00.157Z,35.13
2023-02-11T04:02:34.749Z,35.87
2023-02-11T04:05:05.366Z,34.43
2023-02-11T04:07:38.359Z,37.63
2023-02-11T04:10:10.169Z,36.90
2023-02-11T04:12:40.364Z,34.40
2023-02-11T04:15:11.411Z,34.50
2023-02-11T04:17:42.527Z,36.30
2023-02-11T04:20:14.235Z,36.30
2023-02-11T04:22:46.908Z,37.97
2023-02-11T04:25:16.950Z,37.13
2023-02-11T04:27:46.859Z,33.30
2023-02-11T04:30:16.986Z,36.83
2023-02-11T04:32:47.006Z,37.27
2023-02-11T04:35:17.022Z,37.17
2023-02-11T04:37:49.578Z,39.13
2023-02-11T04:40:20.089Z,39.43
2023-02-11T04:42:50.234Z,38.53
2023-02-11T04:45:20.228Z,37.73
2023-02-11T04:47:50.176Z,39.27
2023-02-11T04:50:20.609Z,37.67
2023-02-11T04:52:53.213Z,39.77
2023-02-11T04:55:23.283Z,40.97
2023-02-11T04:57:53.255Z,42.07
2023-02-11T05:00:23.658Z,39.23
2023-02-11T05:02:53.676Z,38.67
2023-02-11T05:05:23.647Z,40.53
2023-02-11T05:07:56.345Z,41.90
2023-02-11T05:10:26.462Z,40.40
2023-02-11T05:12:56.402Z,41.80
2023-02-11T05:15:26.474Z,41.27
2023-02-11T05:17:56.838Z,41.03
2023-02-11T05:20:26.808Z,42.50
2023-02-11T05:22:59.302Z,39.97
2023-02-11T05:25:29.306Z,45.47
2023-02-11T05:27:59.609Z,40.70
2023-02-11T05:30:29.692Z,43.63
2023-02-11T05:33:00.194Z,43.57
2023-02-11T05:35:30.315Z,42.43
2023-02-11T05:38:02.910Z,39.27
2023-02-11T05:40:32.920Z,43.93
2023-02-11T05:43:02.899Z,36.90
2023-02-11T05:45:33.091Z,43.63
2023-02-11T05:48:03.385Z,41.57
2023-02-11T05:50:34.436Z,44.47
2023-02-11T05:53:07.132Z,47.17
2023-02-11T05:55:37.724Z,43.07
2023-02-11T05:58:09.290Z,44.43
2023-02-11T06:00:42.141Z,50.27
2023-02-11T06:03:12.176Z,44.27
2023-02-11T06:05:42.236Z,44.13
2023-02-11T06:08:15.300Z,45.63
2023-02-11T06:10:47.879Z,44.57
2023-02-11T06:13:18.697Z,44.83
2023-02-11T06:15:49.087Z,47.03
2023-02-11T06:18:19.445Z,46.03
2023-02-11T06:20:49.605Z,44.93
2023-02-11T06:23:22.171Z,45.53
2023-02-11T06:25:52.370Z,45.37
2023-02-11T06:28:22.802Z,47.30
2023-02-11T06:30:52.811Z,48.03
2023-02-11T06:33:22.827Z,48.73
2023-02-11T06:35:53.083Z,48.57
2023-02-11T06:38:25.676Z,47.87
2023-02-11T06:40:55.586Z,50.40
2023-02-11T06:43:25.701Z,50.53
2023-02-11T06:45:56.969Z,45.17
2023-02-11T06:48:27.229Z,42.87
2023-02-11T06:50:57.232Z,50.53
2023-02-11T06:53:31.976Z,50.27
2023-02-11T06:56:05.878Z,49.90
2023-02-11T06:58:35.892Z,49.47
2023-02-11T07:01:08.214Z,52.13
2023-02-11T07:03:39.451Z,47.43
2023-02-11T07:06:15.668Z,47.73
2023-02-11T07:08:49.014Z,44.37
2023-02-11T07:11:21.184Z,49.70
2023-02-11T07:13:51.202Z,44.10
2023-02-11T07:16:22.402Z,48.73
2023-02-11T07:18:52.815Z,48.57
2023-02-11T07:21:25.626Z,47.13
2023-02-11T07:23:58.294Z,51.67
2023-02-11T07:26:29.086Z,50.33
2023-02-11T07:28:59.192Z,50.03
2023-02-11T07:31:31.034Z,51.07
2023-02-11T07:34:03.282Z,48.77
2023-02-11T07:36:34.592Z,50.73
2023-02-11T07:39:07.510Z,48.83
2023-02-11T07:41:38.156Z,51.77
2023-02-11T07:44:08.744Z,42.07
2023-02-11T07:46:43.139Z,49.00
2023-02-11T07:49:13.723Z,49.00
2023-02-11T07:51:43.648Z,46.43
2023-02-11T07:54:16.271Z,48.90
2023-02-11T07:56:46.280Z,49.50
2023-02-11T07:59:16.323Z,48.03
2023-02-11T08:01:46.421Z,48.27
2023-02-11T08:04:16.471Z,49.97
2023-02-11T08:06:46.981Z,47.77
2023-02-11T08:09:19.851Z,44.83
2023-02-11T08:11:49.840Z,48.20
2023-02-11T08:14:20.786Z,47.83
2023-02-11T08:16:51.103Z,48.73
2023-02-11T08:19:21.168Z,48.40
2023-02-11T08:21:51.158Z,48.90
2023-02-11T08:24:23.972Z,48.33
2023-02-11T08:26:53.908Z,48.23
2023-02-11T08:29:23.887Z,45.20
2023-02-11T08:31:54.058Z,48.57
2023-02-11T08:34:24.020Z,65.27
2023-02-11T08:36:54.140Z,42.37
2023-02-11T08:39:26.687Z,46.33
2023-02-11T08:41:58.316Z,48.50
2023-02-11T08:44:29.711Z,45.17
2023-02-11T08:46:59.710Z,46.57
2023-02-11T08:49:30.734Z,47.10
2023-02-11T08:52:04.344Z,44.67
2023-02-11T08:54:37.208Z,46.70
2023-02-11T08:57:07.913Z,49.83
2023-02-11T08:59:40.119Z,46.90
2023-02-11T09:02:14.282Z,45.10
2023-02-11T09:04:44.376Z,45.13
2023-02-11T09:07:14.651Z,45.07
2023-02-11T09:09:50.221Z,45.00
2023-02-11T09:12:20.317Z,47.37
2023-02-11T09:14:50.307Z,44.27
2023-02-11T09:17:20.360Z,43.40
2023-02-11T09:19:50.269Z,44.10
2023-02-11T09:22:20.453Z,45.37
2023-02-11T09:24:53.094Z,42.73
2023-02-11T09:27:23.079Z,56.00
2023-02-11T09:29:53.179Z,44.07
2023-02-11T09:32:23.104Z,35.87
2023-02-11T09:34:53.112Z,43.67
2023-02-11T09:37:23.051Z,43.30
2023-02-11T09:39:55.579Z,40.10
2023-02-11T09:42:43.410Z,44.33
2023-02-11T09:45:18.749Z,41.30
2023-02-11T09:47:52.575Z,42.27
2023-02-11T09:50:29.027Z,42.83
2023-02-11T09:53:03.046Z,46.50
2023-02-11T09:55:39.609Z,44.83
2023-02-11T09:58:15.978Z,44.83
2023-02-11T10:00:50.341Z,43.13
2023-02-11T10:03:45.343Z,41.23
2023-02-11T10:06:28.345Z,37.13
2023-02-11T10:09:10.602Z,43.27
2023-02-11T10:11:54.005Z,44.20
2023-02-11T10:14:43.875Z,44.07
2023-02-11T10:17:22.453Z,42.77
2023-02-11T10:20:05.631Z,44.33
2023-02-11T10:22:40.596Z,43.33
2023-02-11T10:25:23.010Z,40.87
2023-02-11T10:27:58.603Z,45.30
2023-02-11T10:30:34.010Z,41.67
2023-02-11T10:33:09.657Z,42.93
2023-02-11T10:35:42.576Z,43.00
2023-02-11T10:38:13.674Z,42.27
2023-02-11T10:40:44.081Z,43.33
2023-02-11T10:43:18.524Z,41.77
2023-02-11T10:45:52.776Z,43.83
2023-02-11T10:48:42.488Z,41.90
2023-02-11T10:51:21.455Z,40.50
2023-02-11T10:53:53.479Z,42.93
2023-02-11T10:56:33.315Z,42.20
2023-02-11T10:59:10.437Z,32.80
2023-02-11T11:01:46.765Z,34.77
2023-02-11T11:04:37.576Z,39.70
2023-02-11T11:07:21.148Z,40.73
2023-02-11T11:09:55.053Z,38.93
2023-02-11T11:12:40.290Z,38.80
2023-02-11T11:15:23.714Z,40.83
2023-02-11T11:18:21.326Z,37.33
2023-02-11T11:21:00.183Z,39.67
2023-02-11T11:23:32.633Z,40.77
2023-02-11T11:26:07.152Z,40.27
2023-02-11T11:28:43.697Z,41.93
2023-02-11T11:31:23.271Z,38.43
2023-02-11T11:33:56.790Z,42.40
2023-02-11T11:36:35.292Z,47.23
2023-02-11T11:39:20.291Z,36.07
2023-02-11T11:41:56.577Z,39.10
2023-02-11T11:44:30.104Z,36.17
2023-02-11T11:47:29.983Z,39.93
2023-02-11T11:50:28.103Z,37.80
2023-02-11T11:53:04.670Z,36.97
2023-02-11T11:55:44.516Z,38.97
2023-02-11T11:58:19.347Z,36.70
2023-02-11T12:00:57.806Z,37.07
2023-02-11T12:04:01.475Z,37.67
2023-02-11T12:06:43.202Z,36.20
2023-02-11T12:09:23.041Z,38.20
2023-02-11T12:12:18.057Z,37.33
2023-02-11T12:14:59.828Z,37.97
2023-02-11T12:17:53.238Z,34.13
2023-02-11T12:20:34.950Z,37.17
2023-02-11T12:23:24.282Z,35.73
2023-02-11T12:26:00.866Z,35.20
2023-02-11T12:28:41.871Z,38.33
2023-02-11T12:31:26.938Z,35.80
2023-02-11T12:34:16.096Z,36.93
2023-02-11T12:37:02.813Z,35.47
2023-02-11T12:39:46.093Z,33.80
2023-02-11T12:42:53.895Z,31.27
2023-02-11T12:45:41.259Z,31.57
2023-02-11T12:48:25.651Z,30.47
2023-02-11T12:51:03.864Z,28.93
2023-02-11T12:53:55.110Z,29.50
2023-02-11T12:56:31.277Z,27.27
2023-02-11T12:59:05.901Z,27.23
2023-02-11T13:01:42.867Z,26.93
2023-02-11T13:04:22.782Z,27.13
2023-02-11T13:06:56.676Z,27.00
2023-02-11T13:09:35.185Z,27.77
2023-02-11T13:12:22.744Z,22.43
2023-02-11T13:14:55.199Z,24.17
2023-02-11T13:17:30.832Z,25.00
2023-02-11T13:20:05.690Z,25.53
2023-02-11T13:22:41.635Z,24.27
2023-02-11T13:25:28.388Z,28.00
2023-02-11T13:28:05.864Z,25.43
2023-02-11T13:30:39.648Z,25.57
2023-02-11T13:33:33.449Z,24.50
2023-02-11T13:36:21.507Z,25.20
2023-02-11T13:39:01.090Z,25.10
2023-02-11T13:41:40.727Z,25.37
2023-02-11T13:44:26.748Z,25.13
2023-02-11T13:47:08.505Z,24.53
2023-02-11T13:49:41.231Z,25.33
2023-02-11T13:52:26.929Z,24.63
2023-02-11T13:54:59.698Z,25.90
2023-02-11T13:57:42.893Z,25.90
2023-02-11T14:00:52.200Z,24.97
2023-02-11T14:03:47.000Z,22.97
2023-02-11T14:06:33.240Z,23.77
2023-02-11T14:09:11.699Z,23.30
2023-02-11T14:11:55.416Z,24.13
2023-02-11T14:14:29.572Z,23.30
2023-02-11T14:17:36.034Z,24.57
2023-02-11T14:20:28.706Z,24.67
2023-02-11T14:22:59.494Z,23.70
2023-02-11T14:25:30.624Z,23.93
2023-02-11T14:28:09.763Z,22.87
2023-02-11T14:30:53.969Z,22.67
2023-02-11T14:34:06.001Z,23.20
2023-02-11T14:36:54.769Z,21.70
2023-02-11T14:39:48.082Z,20.73
2023-02-11T14:42:22.629Z,21.17
2023-02-11T14:44:53.721Z,20.50
2023-02-11T14:47:31.093Z,20.27
2023-02-11T14:50:01.203Z,22.80
2023-02-11T14:52:33.467Z,20.00
2023-02-11T14:55:18.021Z,17.57
2023-02-11T14:57:51.157Z,18.03
2023-02-11T15:00:24.061Z,19.00
2023-02-11T15:02:57.112Z,19.73
2023-02-11T15:05:30.323Z,20.37
2023-02-11T15:08:02.689Z,18.97
2023-02-11T15:10:36.299Z,18.23
2023-02-11T15:13:07.912Z,18.73
2023-02-11T15:15:38.798Z,19.60
2023-02-11T15:18:12.216Z,19.57
2023-02-11T15:20:44.514Z,19.17
2023-02-11T15:23:24.552Z,17.30
2023-02-11T15:25:56.309Z,17.30
2023-02-11T15:28:29.051Z,17.37
2023-02-11T15:31:08.180Z,17.77
2023-02-11T15:33:40.873Z,19.10
2023-02-11T15:36:14.813Z,17.40
2023-02-11T15:38:45.149Z,18.53
2023-02-11T15:41:37.707Z,18.13
2023-02-11T15:44:08.252Z,18.13
2023-02-11T15:46:42.295Z,17.40
2023-02-11T15:49:21.527Z,17.53
2023-02-11T15:51:52.023Z,16.33
2023-02-11T15:54:23.943Z,17.70
2023-02-11T15:57:02.791Z,17.17
2023-02-11T15:59:38.244Z,16.63
2023-02-11T16:02:11.366Z,16.07
2023-02-11T16:04:53.942Z,16.17
2023-02-11T16:07:42.881Z,16.23
2023-02-11T16:10:21.441Z,15.63
2023-02-11T16:13:04.650Z,14.57
2023-02-11T16:15:51.097Z,15.67
2023-02-11T16:18:39.070Z,14.50
2023-02-11T16:21:19.001Z,15.50
2023-02-11T16:23:55.969Z,14.47
2023-02-11T16:26:31.961Z,15.20
2023-02-11T16:29:10.637Z,15.10
2023-02-11T16:31:43.544Z,16.17
2023-02-11T16:34:18.736Z,16.77
2023-02-11T16:36:52.998Z,16.17
2023-02-11T16:39:24.430Z,15.43
2023-02-11T16:41:56.221Z,14.10
2023-02-11T16:44:26.164Z,16.13
2023-02-11T16:46:56.975Z,16.73
2023-02-11T16:49:30.627Z,16.43
2023-02-11T16:52:09.250Z,16.47
2023-02-11T16:54:39.281Z,17.10
2023-02-11T16:57:16.362Z,14.43
2023-02-11T16:59:46.695Z,14.93
2023-02-11T17:02:23.616Z,15.30
2023-02-11T17:04:55.198Z,14.10
2023-02-11T17:07:28.011Z,13.47
2023-02-11T17:09:58.156Z,14.03
2023-02-11T17:12:28.414Z,13.30
2023-02-11T17:14:58.475Z,14.47
2023-02-11T17:17:30.067Z,13.83
2023-02-11T17:20:00.155Z,12.97
2023-02-11T17:22:32.866Z,12.83
2023-02-11T17:25:03.059Z,13.13
2023-02-11T17:27:33.374Z,12.80
2023-02-11T17:30:03.532Z,14.17
2023-02-11T17:32:33.538Z,13.40
2023-02-11T17:35:03.579Z,12.17
2023-02-11T17:37:36.316Z,12.23
2023-02-11T17:40:07.018Z,13.17
2023-02-11T17:42:37.214Z,13.23
2023-02-11T17:45:08.582Z,13.67
2023-02-11T17:47:39.153Z,12.67
2023-02-11T17:50:13.655Z,13.63
2023-02-11T17:52:46.487Z,14.30
2023-02-11T17:55:16.675Z,13.13
2023-02-11T17:57:46.996Z,13.10
2023-02-11T18:00:18.496Z,13.63
2023-02-11T18:02:48.837Z,12.03
2023-02-11T18:05:19.324Z,12.10
2023-02-11T18:07:51.976Z,12.50
2023-02-11T18:10:22.209Z,14.93
2023-02-11T18:12:52.564Z,12.47
2023-02-11T18:15:22.639Z,12.27
2023-02-11T18:17:53.985Z,11.73
2023-02-11T18:20:24.246Z,13.10
2023-02-11T18:22:56.887Z,14.37
2023-02-11T18:25:26.870Z,12.07
2023-02-11T18:27:56.837Z,11.57
2023-02-11T18:30:31.326Z,15.03
2023-02-11T18:33:01.559Z,13.17
2023-02-11T18:35:31.611Z,13.00
2023-02-11T18:38:04.333Z,13.37
2023-02-11T18:40:34.516Z,12.53
2023-02-11T18:43:04.539Z,12.80
2023-02-11T18:45:34.658Z,12.40
2023-02-11T18:48:05.384Z,12.83
2023-02-11T18:50:35.488Z,12.80
2023-02-11T18:53:08.120Z,13.37
2023-02-11T18:55:38.135Z,12.83
2023-02-11T18:58:10.721Z,12.07
2023-02-11T19:00:44.273Z,11.80
2023-02-11T19:03:14.406Z,11.83
2023-02-11T19:05:45.222Z,11.33
2023-02-11T19:08:18.533Z,11.63
2023-02-11T19:10:50.201Z,12.80
2023-02-11T19:13:20.190Z,11.40
2023-02-11T19:15:50.706Z,11.80
2023-02-11T19:18:20.987Z,11.10
2023-02-11T19:20:51.059Z,11.83
2023-02-11T19:23:23.748Z,30.83
2023-02-11T19:25:53.988Z,13.57
2023-02-11T19:28:24.268Z,10.90
2023-02-11T19:30:54.569Z,13.03
2023-02-11T19:33:24.835Z,12.13
2023-02-11T19:35:54.996Z,12.87
2023-02-11T19:38:27.727Z,14.23
2023-02-11T19:41:01.370Z,13.00
2023-02-11T19:43:31.532Z,13.03
2023-02-11T19:46:04.731Z,14.37
2023-02-11T19:48:35.193Z,15.10
2023-02-11T19:51:13.746Z,14.23
2023-02-11T19:53:47.550Z,12.97
2023-02-11T19:56:20.483Z,12.53
2023-02-11T19:58:51.341Z,12.73
2023-02-11T20:01:23.865Z,12.70
2023-02-11T20:03:55.671Z,13.60
2023-02-11T20:06:28.150Z,12.90
2023-02-11T20:09:02.824Z,12.13
2023-02-11T20:11:34.407Z,12.00
2023-02-11T20:14:04.752Z,12.97
2023-02-11T20:16:47.611Z,13.33
2023-02-11T20:19:19.615Z,20.53
2023-02-11T20:21:50.956Z,15.87
2023-02-11T20:24:24.142Z,13.73
2023-02-11T20:26:55.973Z,13.60
2023-02-11T20:29:27.451Z,13.43
2023-02-11T20:31:57.708Z,12.83
2023-02-11T20:34:27.827Z,13.37
2023-02-11T20:36:57.878Z,13.20
2023-02-11T20:39:30.446Z,14.07
2023-02-11T20:42:00.507Z,14.00
2023-02-11T20:44:30.523Z,13.93
2023-02-11T20:47:00.608Z,13.73
2023-02-11T20:49:30.758Z,13.63
2023-02-11T20:52:01.200Z,13.53
2023-02-11T20:54:33.794Z,14.30
2023-02-11T20:57:03.924Z,13.13
2023-02-11T20:59:34.117Z,13.37
2023-02-11T21:02:04.169Z,13.67
2023-02-11T21:04:34.497Z,13.67
2023-02-11T21:07:05.106Z,13.37
2023-02-11T21:09:38.313Z,13.17
2023-02-11T21:12:09.277Z,13.00
2023-02-11T21:14:39.275Z,12.53
2023-02-11T21:17:09.261Z,12.87
2023-02-11T21:19:39.422Z,12.87
2023-02-11T21:22:09.350Z,16.07
2023-02-11T21:24:41.968Z,11.90
2023-02-11T21:27:11.926Z,11.70
2023-02-11T21:29:53.428Z,12.57
2023-02-11T21:32:26.164Z,12.43
2023-02-11T21:34:56.877Z,12.47
2023-02-11T21:37:27.562Z,11.30
2023-02-11T21:40:00.138Z,10.70
2023-02-11T21:42:30.160Z,10.60
2023-02-11T21:45:00.360Z,11.10
2023-02-11T21:47:30.476Z,11.10
2023-02-11T21:50:00.558Z,11.00
2023-02-11T21:52:30.506Z,11.43
2023-02-11T21:55:03.152Z,11.00
2023-02-11T21:57:33.693Z,11.13
2023-02-11T22:00:03.720Z,11.23
2023-02-11T22:02:35.611Z,11.43
2023-02-11T22:05:05.712Z,9.93
2023-02-11T22:07:37.848Z,10.83
2023-02-11T22:10:12.200Z,11.03
2023-02-11T22:12:42.505Z,10.37
2023-02-11T22:15:13.281Z,10.40
2023-02-11T22:17:43.257Z,9.80
2023-02-11T22:20:14.202Z,10.97
2023-02-11T22:22:44.328Z,9.87
2023-02-11T22:25:16.987Z,10.10
2023-02-11T22:27:46.959Z,10.23
2023-02-11T22:30:17.276Z,9.67
2023-02-11T22:32:47.509Z,8.97
2023-02-11T22:35:17.716Z,10.10
2023-02-11T22:37:47.828Z,9.40
2023-02-11T22:40:20.505Z,9.80
2023-02-11T22:42:50.620Z,8.83
2023-02-11T22:45:20.608Z,9.27
2023-02-11T22:47:50.644Z,9.53
2023-02-11T22:50:20.785Z,8.13
2023-02-11T22:52:50.825Z,9.27
2023-02-11T22:55:23.349Z,8.50
2023-02-11T22:57:53.404Z,8.13
2023-02-11T23:00:24.306Z,8.40
2023-02-11T23:02:54.700Z,8.07
2023-02-11T23:05:24.670Z,8.00
2023-02-11T23:07:54.670Z,9.20
2023-02-11T23:10:27.291Z,8.47
2023-02-11T23:12:57.356Z,8.10
2023-02-11T23:15:27.466Z,9.33
2023-02-11T23:17:57.507Z,8.57
2023-02-11T23:20:27.562Z,8.20
2023-02-11T23:22:57.651Z,8.40
2023-02-11T23:25:30.213Z,9.43
2023-02-11T23:28:00.520Z,8.43
2023-02-11T23:30:31.563Z,8.93
2023-02-11T23:33:01.595Z,8.73
2023-02-11T23:35:31.830Z,8.93
2023-02-11T23:38:01.864Z,9.40
2023-02-11T23:40:34.629Z,9.07
2023-02-11T23:43:04.605Z,8.73
2023-02-11T23:45:35.013Z,8.10
2023-02-11T23:48:05.160Z,9.10
2023-02-11T23:50:35.900Z,8.63
2023-02-11T23:53:06.274Z,7.90
2023-02-11T23:55:40.025Z,8.80
2023-02-11T23:58:10.625Z,8.90
